sensor_id;sensor_type;location;lat;lon;timestamp;P1;durP1;ratioP1;P2;durP2;ratioP2
17784;SDS011;9016;53.582;10.062;2022-09-09T00:01:59;37.67;;;32.87;;
17784;SDS011;9016;53.582;10.062;2022-09-09T00:04:33;36.57;;;32.17;;
17784;SDS011;9016;53.582;10.062;2022-09-09T00:07:03;35.23;;;31.43;;
17784;SDS011;9016;53.582;10.062;2022-09-09T00:09:36;37.93;;;32.07;;
17784;SDS011;9016;53.582;10.062;2022-09-09T00:12:11;39.47;;;33.00;;
17784;SDS011;9016;53.582;10.062;2022-09-09T00:14:44;38.50;;;33.20;;
17784;SDS011;9016;53.582;10.062;2022-09-09T00:17:21;44.97;;;36.17;;
17784;SDS011;9016;53.582;10.062;2022-09-09T00:20:03;40.63;;;33.40;;
17784;SDS011;9016;53.582;10.062;2022-09-09T00:22:40;45.73;;;34.40;;
17784;SDS011;9016;53.582;10.062;2022-09-09T00:25:14;42.37;;;32.93;;
17784;SDS011;9016;53.582;10.062;2022-09-09T00:27:49;43.97;;;34.00;;
17784;SDS011;9016;53.582;10.062;2022-09-09T00:30:18;45.90;;;34.40;;
17784;SDS011;9016;53.582;10.062;2022-09-09T00:32:49;45.27;;;35.53;;
17784;SDS011;9016;53.582;10.062;2022-09-09T00:35:21;47.53;;;35.13;;
17784;SDS011;9016;53.582;10.062;2022-09-09T00:37:52;44.43;;;35.07;;
17784;SDS011;9016;53.582;10.062;2022-09-09T00:40:25;46.30;;;34.93;;
17784;SDS011;9016;53.582;10.062;2022-09-09T00:43:12;50.00;;;34.10;;
17784;SDS011;9016;53.582;10.062;2022-09-09T00:46:08;40.47;;;31.57;;
17784;SDS011;9016;53.582;10.062;2022-09-09T00:49:02;43.57;;;30.63;;
17784;SDS011;9016;53.582;10.062;2022-09-09T00:51:39;34.57;;;28.17;;
17784;SDS011;9016;53.582;10.062;2022-09-09T00:54:21;36.10;;;29.27;;
17784;SDS011;9016;53.582;10.062;2022-09-09T00:57:00;43.40;;;29.80;;
17784;SDS011;9016;53.582;10.062;2022-09-09T00:59:38;35.63;;;27.33;;
17784;SDS011;9016;53.582;10.062;2022-09-09T01:02:13;38.83;;;28.23;;
17784;SDS011;9016;53.582;10.062;2022-09-09T01:04:48;33.13;;;26.63;;
17784;SDS011;9016;53.582;10.062;2022-09-09T01:07:17;30.10;;;26.23;;
17784;SDS011;9016;53.582;10.062;2022-09-09T01:09:51;37.07;;;25.97;;
17784;SDS011;9016;53.582;10.062;2022-09-09T01:12:26;38.17;;;25.43;;
17784;SDS011;9016;53.582;10.062;2022-09-09T01:15:07;28.50;;;23.87;;
17784;SDS011;9016;53.582;10.062;2022-09-09T01:17:42;25.90;;;22.60;;
17784;SDS011;9016;53.582;10.062;2022-09-09T01:20:18;26.47;;;20.50;;
17784;SDS011;9016;53.582;10.062;2022-09-09T01:22:58;24.03;;;20.30;;
17784;SDS011;9016;53.582;10.062;2022-09-09T01:26:03;32.57;;;21.70;;
17784;SDS011;9016;53.582;10.062;2022-09-09T01:28:37;23.47;;;20.77;;
17784;SDS011;9016;53.582;10.062;2022-09-09T01:31:06;30.60;;;21.47;;
17784;SDS011;9016;53.582;10.062;2022-09-09T01:33:39;32.43;;;22.43;;
17784;SDS011;9016;53.582;10.062;2022-09-09T01:36:08;32.90;;;21.77;;
17784;SDS011;9016;53.582;10.062;2022-09-09T01:38:38;25.10;;;21.47;;
17784;SDS011;9016;53.582;10.062;2022-09-09T01:41:08;36.03;;;23.17;;
17784;SDS011;9016;53.582;10.062;2022-09-09T01:43:36;26.37;;;21.87;;
17784;SDS011;9016;53.582;10.062;2022-09-09T01:46:04;25.17;;;22.40;;
17784;SDS011;9016;53.582;10.062;2022-09-09T01:48:33;30.00;;;22.47;;
17784;SDS011;9016;53.582;10.062;2022-09-09T01:51:01;24.60;;;21.37;;
17784;SDS011;9016;53.582;10.062;2022-09-09T01:53:29;38.53;;;23.20;;
17784;SDS011;9016;53.582;10.062;2022-09-09T01:56:00;26.97;;;23.17;;
17784;SDS011;9016;53.582;10.062;2022-09-09T01:58:40;23.87;;;21.07;;
17784;SDS011;9016;53.582;10.062;2022-09-09T02:01:23;29.50;;;23.00;;
17784;SDS011;9016;53.582;10.062;2022-09-09T02:04:00;29.30;;;23.37;;
17784;SDS011;9016;53.582;10.062;2022-09-09T02:06:36;29.83;;;22.40;;
17784;SDS011;9016;53.582;10.062;2022-09-09T02:09:07;31.17;;;23.47;;
17784;SDS011;9016;53.582;10.062;2022-09-09T02:11:40;34.70;;;24.67;;
17784;SDS011;9016;53.582;10.062;2022-09-09T02:14:14;33.13;;;24.83;;
17784;SDS011;9016;53.582;10.062;2022-09-09T02:16:47;34.47;;;25.27;;
17784;SDS011;9016;53.582;10.062;2022-09-09T02:19:20;34.97;;;26.00;;
17784;SDS011;9016;53.582;10.062;2022-09-09T02:21:54;27.00;;;23.67;;
17784;SDS011;9016;53.582;10.062;2022-09-09T02:24:24;28.07;;;23.63;;
17784;SDS011;9016;53.582;10.062;2022-09-09T02:26:55;28.90;;;24.17;;
17784;SDS011;9016;53.582;10.062;2022-09-09T02:29:29;24.87;;;22.17;;
17784;SDS011;9016;53.582;10.062;2022-09-09T02:32:00;25.83;;;22.13;;
17784;SDS011;9016;53.582;10.062;2022-09-09T02:34:33;25.90;;;21.63;;
17784;SDS011;9016;53.582;10.062;2022-09-09T02:37:03;28.57;;;23.57;;
17784;SDS011;9016;53.582;10.062;2022-09-09T02:39:33;25.97;;;22.47;;
17784;SDS011;9016;53.582;10.062;2022-09-09T02:42:02;26.50;;;22.57;;
17784;SDS011;9016;53.582;10.062;2022-09-09T02:47:08;28.67;;;22.23;;
17784;SDS011;9016;53.582;10.062;2022-09-09T02:49:47;25.83;;;22.03;;
17784;SDS011;9016;53.582;10.062;2022-09-09T02:52:26;22.40;;;19.03;;
17784;SDS011;9016;53.582;10.062;2022-09-09T02:54:59;24.30;;;20.30;;
17784;SDS011;9016;53.582;10.062;2022-09-09T02:57:34;27.87;;;21.47;;
17784;SDS011;9016;53.582;10.062;2022-09-09T03:00:05;22.13;;;19.73;;
17784;SDS011;9016;53.582;10.062;2022-09-09T03:02:34;22.17;;;19.43;;
17784;SDS011;9016;53.582;10.062;2022-09-09T03:05:02;22.77;;;20.27;;
17784;SDS011;9016;53.582;10.062;2022-09-09T03:07:31;23.63;;;20.67;;
17784;SDS011;9016;53.582;10.062;2022-09-09T03:09:59;27.40;;;20.93;;
17784;SDS011;9016;53.582;10.062;2022-09-09T03:12:27;24.83;;;20.60;;
17784;SDS011;9016;53.582;10.062;2022-09-09T03:14:55;25.43;;;19.50;;
17784;SDS011;9016;53.582;10.062;2022-09-09T03:17:24;22.53;;;19.00;;
17784;SDS011;9016;53.582;10.062;2022-09-09T03:19:54;23.33;;;19.77;;
17784;SDS011;9016;53.582;10.062;2022-09-09T03:22:24;21.27;;;19.00;;
17784;SDS011;9016;53.582;10.062;2022-09-09T03:24:52;23.23;;;18.30;;
17784;SDS011;9016;53.582;10.062;2022-09-09T03:27:20;19.70;;;17.70;;
17784;SDS011;9016;53.582;10.062;2022-09-09T03:29:48;19.77;;;17.77;;
17784;SDS011;9016;53.582;10.062;2022-09-09T03:32:17;23.77;;;19.50;;
17784;SDS011;9016;53.582;10.062;2022-09-09T03:34:46;18.23;;;16.43;;
17784;SDS011;9016;53.582;10.062;2022-09-09T03:37:16;21.73;;;17.87;;
17784;SDS011;9016;53.582;10.062;2022-09-09T03:39:44;20.10;;;17.87;;
17784;SDS011;9016;53.582;10.062;2022-09-09T03:42:12;21.70;;;18.53;;
17784;SDS011;9016;53.582;10.062;2022-09-09T03:44:45;19.80;;;17.70;;
17784;SDS011;9016;53.582;10.062;2022-09-09T03:47:16;21.80;;;18.50;;
17784;SDS011;9016;53.582;10.062;2022-09-09T03:49:47;20.03;;;18.03;;
17784;SDS011;9016;53.582;10.062;2022-09-09T03:52:15;19.37;;;17.10;;
17784;SDS011;9016;53.582;10.062;2022-09-09T03:54:49;22.13;;;18.73;;
17784;SDS011;9016;53.582;10.062;2022-09-09T03:57:17;24.50;;;18.23;;
17784;SDS011;9016;53.582;10.062;2022-09-09T03:59:45;22.67;;;18.57;;
17784;SDS011;9016;53.582;10.062;2022-09-09T04:02:13;23.13;;;18.63;;
17784;SDS011;9016;53.582;10.062;2022-09-09T04:04:41;24.27;;;18.73;;
17784;SDS011;9016;53.582;10.062;2022-09-09T04:07:11;20.53;;;18.33;;
17784;SDS011;9016;53.582;10.062;2022-09-09T04:09:38;18.97;;;17.07;;
17784;SDS011;9016;53.582;10.062;2022-09-09T04:12:08;19.20;;;17.30;;
17784;SDS011;9016;53.582;10.062;2022-09-09T04:14:39;17.93;;;16.10;;
17784;SDS011;9016;53.582;10.062;2022-09-09T04:17:07;19.03;;;17.03;;
17784;SDS011;9016;53.582;10.062;2022-09-09T04:19:35;19.47;;;17.57;;
17784;SDS011;9016;53.582;10.062;2022-09-09T04:22:03;17.90;;;16.00;;
17784;SDS011;9016;53.582;10.062;2022-09-09T04:24:32;18.50;;;15.97;;
17784;SDS011;9016;53.582;10.062;2022-09-09T04:27:01;19.93;;;17.53;;
17784;SDS011;9016;53.582;10.062;2022-09-09T04:29:29;17.60;;;15.73;;
17784;SDS011;9016;53.582;10.062;2022-09-09T04:31:57;19.17;;;16.73;;
17784;SDS011;9016;53.582;10.062;2022-09-09T04:34:24;17.80;;;16.00;;
17784;SDS011;9016;53.582;10.062;2022-09-09T04:36:53;17.90;;;15.00;;
17784;SDS011;9016;53.582;10.062;2022-09-09T04:39:21;17.20;;;15.33;;
17784;SDS011;9016;53.582;10.062;2022-09-09T04:41:50;16.37;;;14.77;;
17784;SDS011;9016;53.582;10.062;2022-09-09T04:44:19;18.77;;;16.77;;
17784;SDS011;9016;53.582;10.062;2022-09-09T04:46:46;17.33;;;15.07;;
17784;SDS011;9016;53.582;10.062;2022-09-09T04:49:14;17.00;;;15.20;;
17784;SDS011;9016;53.582;10.062;2022-09-09T04:51:42;17.77;;;16.03;;
17784;SDS011;9016;53.582;10.062;2022-09-09T04:54:10;16.70;;;15.00;;
17784;SDS011;9016;53.582;10.062;2022-09-09T04:56:38;18.10;;;16.17;;
17784;SDS011;9016;53.582;10.062;2022-09-09T04:59:07;17.40;;;15.70;;
17784;SDS011;9016;53.582;10.062;2022-09-09T05:01:36;16.33;;;14.73;;
17784;SDS011;9016;53.582;10.062;2022-09-09T05:04:04;16.00;;;14.57;;
17784;SDS011;9016;53.582;10.062;2022-09-09T05:06:31;15.93;;;14.43;;
17784;SDS011;9016;53.582;10.062;2022-09-09T05:08:59;16.70;;;15.17;;
17784;SDS011;9016;53.582;10.062;2022-09-09T05:11:28;16.50;;;14.97;;
17784;SDS011;9016;53.582;10.062;2022-09-09T05:13:58;15.67;;;14.17;;
17784;SDS011;9016;53.582;10.062;2022-09-09T05:16:27;15.90;;;14.33;;
17784;SDS011;9016;53.582;10.062;2022-09-09T05:18:56;15.77;;;14.33;;
17784;SDS011;9016;53.582;10.062;2022-09-09T05:21:25;15.00;;;13.60;;
17784;SDS011;9016;53.582;10.062;2022-09-09T05:23:54;15.17;;;13.73;;
17784;SDS011;9016;53.582;10.062;2022-09-09T05:26:22;14.53;;;13.13;;
17784;SDS011;9016;53.582;10.062;2022-09-09T05:28:50;14.60;;;13.20;;
17784;SDS011;9016;53.582;10.062;2022-09-09T05:31:18;14.20;;;13.00;;
17784;SDS011;9016;53.582;10.062;2022-09-09T05:33:48;14.70;;;13.30;;
17784;SDS011;9016;53.582;10.062;2022-09-09T05:36:17;13.73;;;12.30;;
17784;SDS011;9016;53.582;10.062;2022-09-09T05:38:46;14.93;;;13.50;;
17784;SDS011;9016;53.582;10.062;2022-09-09T05:41:14;14.73;;;13.23;;
17784;SDS011;9016;53.582;10.062;2022-09-09T05:43:43;15.13;;;13.53;;
17784;SDS011;9016;53.582;10.062;2022-09-09T05:46:16;14.40;;;13.07;;
17784;SDS011;9016;53.582;10.062;2022-09-09T05:48:46;13.67;;;12.33;;
17784;SDS011;9016;53.582;10.062;2022-09-09T05:51:18;12.97;;;11.77;;
17784;SDS011;9016;53.582;10.062;2022-09-09T05:53:48;12.37;;;11.27;;
17784;SDS011;9016;53.582;10.062;2022-09-09T05:56:17;12.70;;;10.90;;
17784;SDS011;9016;53.582;10.062;2022-09-09T05:58:48;12.67;;;11.57;;
17784;SDS011;9016;53.582;10.062;2022-09-09T06:01:17;13.23;;;12.03;;
17784;SDS011;9016;53.582;10.062;2022-09-09T06:03:48;13.37;;;11.93;;
17784;SDS011;9016;53.582;10.062;2022-09-09T06:06:18;12.43;;;11.23;;
17784;SDS011;9016;53.582;10.062;2022-09-09T06:08:48;12.50;;;11.20;;
17784;SDS011;9016;53.582;10.062;2022-09-09T06:11:19;12.07;;;10.83;;
17784;SDS011;9016;53.582;10.062;2022-09-09T06:13:49;11.67;;;9.97;;
17784;SDS011;9016;53.582;10.062;2022-09-09T06:16:20;11.87;;;10.27;;
17784;SDS011;9016;53.582;10.062;2022-09-09T06:18:51;10.43;;;9.27;;
17784;SDS011;9016;53.582;10.062;2022-09-09T06:21:23;10.60;;;9.50;;
17784;SDS011;9016;53.582;10.062;2022-09-09T06:23:52;10.67;;;9.27;;
17784;SDS011;9016;53.582;10.062;2022-09-09T06:26:26;10.53;;;8.53;;
17784;SDS011;9016;53.582;10.062;2022-09-09T06:28:56;11.80;;;9.03;;
17784;SDS011;9016;53.582;10.062;2022-09-09T06:31:26;9.60;;;8.57;;
17784;SDS011;9016;53.582;10.062;2022-09-09T06:33:58;9.20;;;8.30;;
17784;SDS011;9016;53.582;10.062;2022-09-09T06:36:28;8.73;;;7.93;;
17784;SDS011;9016;53.582;10.062;2022-09-09T06:38:57;9.03;;;7.80;;
17784;SDS011;9016;53.582;10.062;2022-09-09T06:41:26;10.77;;;8.47;;
17784;SDS011;9016;53.582;10.062;2022-09-09T06:43:55;8.90;;;7.70;;
17784;SDS011;9016;53.582;10.062;2022-09-09T06:46:24;9.63;;;8.83;;
17784;SDS011;9016;53.582;10.062;2022-09-09T06:48:56;8.17;;;7.43;;
17784;SDS011;9016;53.582;10.062;2022-09-09T06:51:28;8.57;;;7.43;;
17784;SDS011;9016;53.582;10.062;2022-09-09T06:53:58;8.80;;;7.90;;
17784;SDS011;9016;53.582;10.062;2022-09-09T06:56:27;10.97;;;7.77;;
17784;SDS011;9016;53.582;10.062;2022-09-09T06:58:56;8.30;;;7.50;;
17784;SDS011;9016;53.582;10.062;2022-09-09T07:01:27;8.50;;;7.27;;
17784;SDS011;9016;53.582;10.062;2022-09-09T07:03:57;10.77;;;7.83;;
17784;SDS011;9016;53.582;10.062;2022-09-09T07:06:28;8.87;;;6.77;;
17784;SDS011;9016;53.582;10.062;2022-09-09T07:08:58;7.50;;;6.80;;
17784;SDS011;9016;53.582;10.062;2022-09-09T07:11:27;8.07;;;6.80;;
17784;SDS011;9016;53.582;10.062;2022-09-09T07:13:57;8.57;;;7.00;;
17784;SDS011;9016;53.582;10.062;2022-09-09T07:16:26;9.90;;;7.60;;
17784;SDS011;9016;53.582;10.062;2022-09-09T07:18:55;7.60;;;6.90;;
17784;SDS011;9016;53.582;10.062;2022-09-09T07:21:24;7.00;;;6.30;;
17784;SDS011;9016;53.582;10.062;2022-09-09T07:23:55;8.27;;;6.10;;
17784;SDS011;9016;53.582;10.062;2022-09-09T07:26:24;9.80;;;6.53;;
17784;SDS011;9016;53.582;10.062;2022-09-09T07:28:53;6.83;;;6.17;;
17784;SDS011;9016;53.582;10.062;2022-09-09T07:31:24;8.13;;;5.80;;
17784;SDS011;9016;53.582;10.062;2022-09-09T07:33:53;6.07;;;5.27;;
17784;SDS011;9016;53.582;10.062;2022-09-09T07:36:22;7.90;;;5.27;;
17784;SDS011;9016;53.582;10.062;2022-09-09T07:39:00;4.82;;;4.43;;
17784;SDS011;9016;53.582;10.062;2022-09-09T07:41:31;7.18;;;4.40;;
17784;SDS011;9016;53.582;10.062;2022-09-09T07:44:04;5.35;;;4.15;;
17784;SDS011;9016;53.582;10.062;2022-09-09T07:46:33;4.78;;;3.90;;
17784;SDS011;9016;53.582;10.062;2022-09-09T07:49:02;5.20;;;4.13;;
17784;SDS011;9016;53.582;10.062;2022-09-09T07:51:31;7.90;;;4.10;;
17784;SDS011;9016;53.582;10.062;2022-09-09T07:54:02;8.25;;;4.10;;
17784;SDS011;9016;53.582;10.062;2022-09-09T07:56:33;3.80;;;3.38;;
17784;SDS011;9016;53.582;10.062;2022-09-09T07:59:01;5.35;;;4.10;;
17784;SDS011;9016;53.582;10.062;2022-09-09T08:01:33;6.60;;;3.92;;
17784;SDS011;9016;53.582;10.062;2022-09-09T08:04:06;7.85;;;4.72;;
17784;SDS011;9016;53.582;10.062;2022-09-09T08:06:36;4.57;;;3.70;;
17784;SDS011;9016;53.582;10.062;2022-09-09T08:09:09;8.45;;;4.45;;
17784;SDS011;9016;53.582;10.062;2022-09-09T08:11:37;4.85;;;3.78;;
17784;SDS011;9016;53.582;10.062;2022-09-09T08:14:06;5.25;;;4.03;;
17784;SDS011;9016;53.582;10.062;2022-09-09T08:16:35;5.20;;;4.70;;
17784;SDS011;9016;53.582;10.062;2022-09-09T08:19:06;4.57;;;4.18;;
17784;SDS011;9016;53.582;10.062;2022-09-09T08:21:35;5.85;;;3.90;;
17784;SDS011;9016;53.582;10.062;2022-09-09T08:24:05;6.15;;;4.00;;
17784;SDS011;9016;53.582;10.062;2022-09-09T08:26:36;6.28;;;4.22;;
17784;SDS011;9016;53.582;10.062;2022-09-09T08:29:06;7.10;;;5.70;;
17784;SDS011;9016;53.582;10.062;2022-09-09T08:31:37;7.53;;;3.95;;
17784;SDS011;9016;53.582;10.062;2022-09-09T08:34:06;9.20;;;5.25;;
17784;SDS011;9016;53.582;10.062;2022-09-09T08:36:36;5.72;;;3.70;;
17784;SDS011;9016;53.582;10.062;2022-09-09T08:39:05;7.57;;;6.38;;
17784;SDS011;9016;53.582;10.062;2022-09-09T08:41:39;5.95;;;5.15;;
17784;SDS011;9016;53.582;10.062;2022-09-09T08:44:26;7.35;;;4.10;;
17784;SDS011;9016;53.582;10.062;2022-09-09T08:47:14;5.38;;;4.72;;
17784;SDS011;9016;53.582;10.062;2022-09-09T08:49:55;7.35;;;4.25;;
17784;SDS011;9016;53.582;10.062;2022-09-09T08:52:43;9.85;;;4.53;;
17784;SDS011;9016;53.582;10.062;2022-09-09T08:55:21;6.22;;;3.70;;
17784;SDS011;9016;53.582;10.062;2022-09-09T08:57:55;5.45;;;4.13;;
17784;SDS011;9016;53.582;10.062;2022-09-09T09:00:28;7.15;;;4.82;;
17784;SDS011;9016;53.582;10.062;2022-09-09T09:03:05;6.07;;;3.97;;
17784;SDS011;9016;53.582;10.062;2022-09-09T09:05:42;10.48;;;7.63;;
17784;SDS011;9016;53.582;10.062;2022-09-09T09:08:17;6.28;;;5.05;;
17784;SDS011;9016;53.582;10.062;2022-09-09T09:10:56;4.55;;;4.13;;
17784;SDS011;9016;53.582;10.062;2022-09-09T09:13:30;6.55;;;4.85;;
17784;SDS011;9016;53.582;10.062;2022-09-09T09:16:12;6.75;;;3.40;;
17784;SDS011;9016;53.582;10.062;2022-09-09T09:18:45;4.50;;;3.70;;
17784;SDS011;9016;53.582;10.062;2022-09-09T09:21:14;5.90;;;4.72;;
17784;SDS011;9016;53.582;10.062;2022-09-09T09:23:48;5.20;;;4.63;;
17784;SDS011;9016;53.582;10.062;2022-09-09T09:26:23;5.28;;;3.75;;
17784;SDS011;9016;53.582;10.062;2022-09-09T09:28:58;5.38;;;3.35;;
17784;SDS011;9016;53.582;10.062;2022-09-09T09:31:26;6.50;;;5.53;;
17784;SDS011;9016;53.582;10.062;2022-09-09T09:33:55;5.63;;;3.58;;
17784;SDS011;9016;53.582;10.062;2022-09-09T09:36:25;9.73;;;6.85;;
17784;SDS011;9016;53.582;10.062;2022-09-09T09:39:02;6.43;;;3.45;;
17784;SDS011;9016;53.582;10.062;2022-09-09T09:41:51;3.97;;;3.25;;
17784;SDS011;9016;53.582;10.062;2022-09-09T09:44:26;13.80;;;7.68;;
17784;SDS011;9016;53.582;10.062;2022-09-09T09:47:05;11.05;;;6.65;;
17784;SDS011;9016;53.582;10.062;2022-09-09T09:49:34;5.03;;;3.20;;
17784;SDS011;9016;53.582;10.062;2022-09-09T09:52:02;4.78;;;3.75;;
17784;SDS011;9016;53.582;10.062;2022-09-09T09:54:32;3.67;;;2.90;;
17784;SDS011;9016;53.582;10.062;2022-09-09T09:57:08;7.57;;;4.20;;
17784;SDS011;9016;53.582;10.062;2022-09-09T09:59:41;4.93;;;3.13;;
17784;SDS011;9016;53.582;10.062;2022-09-09T10:02:16;9.57;;;6.90;;
17784;SDS011;9016;53.582;10.062;2022-09-09T10:04:46;17.70;;;9.32;;
17784;SDS011;9016;53.582;10.062;2022-09-09T10:07:17;14.23;;;10.55;;
17784;SDS011;9016;53.582;10.062;2022-09-09T10:09:47;6.63;;;5.30;;
17784;SDS011;9016;53.582;10.062;2022-09-09T10:12:23;6.47;;;4.15;;
17784;SDS011;9016;53.582;10.062;2022-09-09T10:15:02;5.28;;;3.53;;
17784;SDS011;9016;53.582;10.062;2022-09-09T10:17:44;5.28;;;3.13;;
17784;SDS011;9016;53.582;10.062;2022-09-09T10:20:28;6.47;;;5.15;;
17784;SDS011;9016;53.582;10.062;2022-09-09T10:23:08;11.40;;;10.23;;
17784;SDS011;9016;53.582;10.062;2022-09-09T10:25:52;10.93;;;9.73;;
17784;SDS011;9016;53.582;10.062;2022-09-09T10:28:40;5.57;;;3.22;;
17784;SDS011;9016;53.582;10.062;2022-09-09T10:31:32;4.70;;;3.30;;
17784;SDS011;9016;53.582;10.062;2022-09-09T10:34:17;8.90;;;4.35;;
17784;SDS011;9016;53.582;10.062;2022-09-09T10:36:57;7.35;;;5.60;;
17784;SDS011;9016;53.582;10.062;2022-09-09T10:39:31;3.25;;;2.92;;
17784;SDS011;9016;53.582;10.062;2022-09-09T10:42:08;3.85;;;1.90;;
17784;SDS011;9016;53.582;10.062;2022-09-09T10:44:42;7.78;;;4.07;;
17784;SDS011;9016;53.582;10.062;2022-09-09T10:47:41;4.68;;;2.70;;
17784;SDS011;9016;53.582;10.062;2022-09-09T10:50:39;7.18;;;6.15;;
17784;SDS011;9016;53.582;10.062;2022-09-09T10:53:34;6.63;;;4.15;;
17784;SDS011;9016;53.582;10.062;2022-09-09T10:56:06;6.72;;;5.72;;
17784;SDS011;9016;53.582;10.062;2022-09-09T10:58:37;4.10;;;2.90;;
17784;SDS011;9016;53.582;10.062;2022-09-09T11:01:11;4.50;;;4.07;;
17784;SDS011;9016;53.582;10.062;2022-09-09T11:03:44;6.32;;;5.32;;
17784;SDS011;9016;53.582;10.062;2022-09-09T11:06:20;4.47;;;2.85;;
17784;SDS011;9016;53.582;10.062;2022-09-09T11:08:55;4.75;;;2.97;;
17784;SDS011;9016;53.582;10.062;2022-09-09T11:11:26;8.38;;;4.20;;
17784;SDS011;9016;53.582;10.062;2022-09-09T11:13:58;5.38;;;3.83;;
17784;SDS011;9016;53.582;10.062;2022-09-09T11:16:33;5.75;;;3.70;;
17784;SDS011;9016;53.582;10.062;2022-09-09T11:19:14;3.90;;;3.40;;
17784;SDS011;9016;53.582;10.062;2022-09-09T11:21:50;7.45;;;5.93;;
17784;SDS011;9016;53.582;10.062;2022-09-09T11:24:20;4.13;;;3.30;;
17784;SDS011;9016;53.582;10.062;2022-09-09T11:26:50;3.97;;;3.42;;
17784;SDS011;9016;53.582;10.062;2022-09-09T11:29:32;5.28;;;2.42;;
17784;SDS011;9016;53.582;10.062;2022-09-09T11:32:17;35.22;;;19.77;;
17784;SDS011;9016;53.582;10.062;2022-09-09T11:35:02;20.45;;;11.02;;
17784;SDS011;9016;53.582;10.062;2022-09-09T11:37:59;28.40;;;15.98;;
17784;SDS011;9016;53.582;10.062;2022-09-09T11:40:40;14.82;;;9.20;;
17784;SDS011;9016;53.582;10.062;2022-09-09T11:43:10;21.02;;;13.15;;
17784;SDS011;9016;53.582;10.062;2022-09-09T11:45:41;12.50;;;7.78;;
17784;SDS011;9016;53.582;10.062;2022-09-09T11:48:22;8.35;;;5.63;;
17784;SDS011;9016;53.582;10.062;2022-09-09T11:51:01;11.98;;;6.18;;
17784;SDS011;9016;53.582;10.062;2022-09-09T11:53:47;44.03;;;19.65;;
17784;SDS011;9016;53.582;10.062;2022-09-09T11:56:24;38.75;;;15.93;;
17784;SDS011;9016;53.582;10.062;2022-09-09T11:58:54;17.77;;;8.68;;
17784;SDS011;9016;53.582;10.062;2022-09-09T12:01:35;24.17;;;11.85;;
17784;SDS011;9016;53.582;10.062;2022-09-09T12:04:12;8.25;;;5.05;;
17784;SDS011;9016;53.582;10.062;2022-09-09T12:06:50;10.45;;;5.82;;
17784;SDS011;9016;53.582;10.062;2022-09-09T12:09:26;11.20;;;5.50;;
17784;SDS011;9016;53.582;10.062;2022-09-09T12:12:24;9.43;;;7.47;;
17784;SDS011;9016;53.582;10.062;2022-09-09T12:14:55;6.95;;;4.97;;
17784;SDS011;9016;53.582;10.062;2022-09-09T12:17:41;7.82;;;5.43;;
17784;SDS011;9016;53.582;10.062;2022-09-09T12:20:12;5.15;;;3.83;;
17784;SDS011;9016;53.582;10.062;2022-09-09T12:22:50;8.60;;;4.75;;
17784;SDS011;9016;53.582;10.062;2022-09-09T12:25:37;10.43;;;8.82;;
17784;SDS011;9016;53.582;10.062;2022-09-09T12:28:17;6.07;;;5.07;;
17784;SDS011;9016;53.582;10.062;2022-09-09T12:30:48;6.60;;;4.07;;
17784;SDS011;9016;53.582;10.062;2022-09-09T12:33:33;7.10;;;4.68;;
17784;SDS011;9016;53.582;10.062;2022-09-09T12:36:03;4.82;;;3.83;;
17784;SDS011;9016;53.582;10.062;2022-09-09T12:38:36;11.77;;;8.02;;
17784;SDS011;9016;53.582;10.062;2022-09-09T12:41:15;11.57;;;7.97;;
17784;SDS011;9016;53.582;10.062;2022-09-09T12:43:46;7.40;;;2.70;;
17784;SDS011;9016;53.582;10.062;2022-09-09T12:46:20;7.03;;;5.53;;
17784;SDS011;9016;53.582;10.062;2022-09-09T12:48:54;14.45;;;12.93;;
17784;SDS011;9016;53.582;10.062;2022-09-09T12:51:24;12.85;;;10.93;;
17784;SDS011;9016;53.582;10.062;2022-09-09T12:53:56;9.73;;;7.32;;
17784;SDS011;9016;53.582;10.062;2022-09-09T12:56:25;4.10;;;3.15;;
17784;SDS011;9016;53.582;10.062;2022-09-09T12:58:56;3.65;;;2.67;;
17784;SDS011;9016;53.582;10.062;2022-09-09T13:01:30;8.98;;;6.00;;
17784;SDS011;9016;53.582;10.062;2022-09-09T13:03:59;5.10;;;3.25;;
17784;SDS011;9016;53.582;10.062;2022-09-09T13:06:28;6.63;;;4.75;;
17784;SDS011;9016;53.582;10.062;2022-09-09T13:09:00;6.57;;;2.92;;
17784;SDS011;9016;53.582;10.062;2022-09-09T13:11:30;4.95;;;2.53;;
17784;SDS011;9016;53.582;10.062;2022-09-09T13:14:02;5.40;;;3.60;;
17784;SDS011;9016;53.582;10.062;2022-09-09T13:16:32;6.85;;;5.05;;
17784;SDS011;9016;53.582;10.062;2022-09-09T13:19:08;7.80;;;5.20;;
17784;SDS011;9016;53.582;10.062;2022-09-09T13:21:41;11.30;;;7.43;;
17784;SDS011;9016;53.582;10.062;2022-09-09T13:24:22;12.20;;;10.85;;
17784;SDS011;9016;53.582;10.062;2022-09-09T13:26:56;9.40;;;7.10;;
17784;SDS011;9016;53.582;10.062;2022-09-09T13:29:26;3.47;;;3.17;;
17784;SDS011;9016;53.582;10.062;2022-09-09T13:31:54;6.22;;;4.57;;
17784;SDS011;9016;53.582;10.062;2022-09-09T13:34:33;6.63;;;6.03;;
17784;SDS011;9016;53.582;10.062;2022-09-09T13:37:03;12.85;;;11.55;;
17784;SDS011;9016;53.582;10.062;2022-09-09T13:39:34;16.05;;;14.48;;
17784;SDS011;9016;53.582;10.062;2022-09-09T13:42:04;12.73;;;11.40;;
17784;SDS011;9016;53.582;10.062;2022-09-09T13:44:34;14.55;;;12.93;;
17784;SDS011;9016;53.582;10.062;2022-09-09T13:47:06;5.78;;;4.05;;
17784;SDS011;9016;53.582;10.062;2022-09-09T13:49:46;10.80;;;9.73;;
17784;SDS011;9016;53.582;10.062;2022-09-09T13:52:15;11.95;;;10.73;;
17784;SDS011;9016;53.582;10.062;2022-09-09T13:54:48;12.48;;;11.25;;
17784;SDS011;9016;53.582;10.062;2022-09-09T13:57:18;8.20;;;6.63;;
17784;SDS011;9016;53.582;10.062;2022-09-09T13:59:47;7.50;;;6.28;;
17784;SDS011;9016;53.582;10.062;2022-09-09T14:02:32;7.88;;;4.60;;
17784;SDS011;9016;53.582;10.062;2022-09-09T14:05:00;7.07;;;4.85;;
17784;SDS011;9016;53.582;10.062;2022-09-09T14:07:28;5.85;;;4.22;;
17784;SDS011;9016;53.582;10.062;2022-09-09T14:09:57;8.77;;;6.45;;
17784;SDS011;9016;53.582;10.062;2022-09-09T14:12:26;9.07;;;4.93;;
17784;SDS011;9016;53.582;10.062;2022-09-09T14:14:54;5.38;;;3.90;;
17784;SDS011;9016;53.582;10.062;2022-09-09T14:17:22;5.95;;;4.25;;
17784;SDS011;9016;53.582;10.062;2022-09-09T14:19:51;5.30;;;3.83;;
17784;SDS011;9016;53.582;10.062;2022-09-09T14:22:19;5.32;;;4.43;;
17784;SDS011;9016;53.582;10.062;2022-09-09T14:24:47;7.18;;;4.40;;
17784;SDS011;9016;53.582;10.062;2022-09-09T14:27:16;7.28;;;4.07;;
17784;SDS011;9016;53.582;10.062;2022-09-09T14:29:44;4.97;;;3.85;;
17784;SDS011;9016;53.582;10.062;2022-09-09T14:32:12;8.98;;;6.38;;
17784;SDS011;9016;53.582;10.062;2022-09-09T14:34:40;6.55;;;5.47;;
17784;SDS011;9016;53.582;10.062;2022-09-09T14:37:08;7.65;;;4.03;;
17784;SDS011;9016;53.582;10.062;2022-09-09T14:39:36;4.47;;;3.97;;
17784;SDS011;9016;53.582;10.062;2022-09-09T14:42:04;7.05;;;3.63;;
17784;SDS011;9016;53.582;10.062;2022-09-09T14:44:34;5.78;;;4.32;;
17784;SDS011;9016;53.582;10.062;2022-09-09T14:47:03;6.97;;;4.15;;
17784;SDS011;9016;53.582;10.062;2022-09-09T14:49:31;5.32;;;3.35;;
17784;SDS011;9016;53.582;10.062;2022-09-09T14:51:59;4.93;;;3.95;;
17784;SDS011;9016;53.582;10.062;2022-09-09T14:54:27;10.85;;;9.38;;
17784;SDS011;9016;53.582;10.062;2022-09-09T14:56:55;6.10;;;4.60;;
17784;SDS011;9016;53.582;10.062;2022-09-09T14:59:24;7.88;;;4.00;;
17784;SDS011;9016;53.582;10.062;2022-09-09T15:01:54;7.60;;;3.63;;
17784;SDS011;9016;53.582;10.062;2022-09-09T15:04:22;9.73;;;6.22;;
17784;SDS011;9016;53.582;10.062;2022-09-09T15:06:50;6.15;;;3.45;;
17784;SDS011;9016;53.582;10.062;2022-09-09T15:09:19;7.93;;;4.70;;